CheckWX is a tool to help pilots better visualize weather data.  It is not intended as a substitute for an official pre-flight weather briefing.

04:05:13 UTC

KADF TAF
Dexter B Florence Memorial Field Airport
Arkadelphia, Arkansas, USA
KADF 282320Z 2900/2924 29010G16KT P6SM SKC FM290200 VRB05KT P6SM SKC

Feb-29@
00:00 UTC

Feb-29 @ 00:00 UTC

Feb-29@
02:00 UTC

Feb-29 @ 02:00 UTC

KADF 282320Z 2900/2924 29010G16KT P6SM SKC

Expired

Wind
  • 290° at 10 KTS
  • {Gusting to 16 KTS
Cloud Levels
  • Clear skies

Feb-29@
02:00 UTC

Feb-29 @ 02:00 UTC

Mar-1@
00:00 UTC

Mar-1 @ 00:00 UTC

FM290200 VRB05KT P6SM SKC

From

From Standard forecast or significant change

Wind
  • Variable at 5 KTS
Cloud Levels
  • Clear skies